Time;durP1;ratioP1;P1;durP2;ratioP2;P2;SDS_P1;SDS_P2;PMS_P1;PMS_P2;Temp;Humidity;BMP_temperature;BMP_pressure;BME280_temperature;BME280_humidity;BME280_pressure;Samples;Min_cycle;Max_cycle;Signal;HPM_P1;HPM_P2
2023/05/18 00:02:03;;;;;;;8.65;1.45;;;;;;;17.07;37.98;102447.63;5012197;28;20030;-76
2023/05/18 00:04:32;;;;;;;4.63;1.70;;;;;;;17.07;36.56;102453.91;4995957;28;20023;-76
2023/05/18 00:07:02;;;;;;;7.13;1.77;;;;;;;17.01;36.59;102442.72;5012345;28;20026;-76
2023/05/18 00:09:28;;;;;;;7.40;1.20;;;;;;;16.99;36.38;102439.31;4995897;28;20053;-76
2023/05/18 00:11:54;;;;;;;4.63;1.48;;;;;;;17.00;37.38;102446.44;4995955;28;20030;-76
2023/05/18 00:14:19;;;;;;;4.30;1.48;;;;;;;16.99;37.01;102447.44;4995880;28;20492;-76
2023/05/18 00:16:45;;;;;;;12.95;1.75;;;;;;;16.94;37.33;102442.41;4996192;28;20049;-76
2023/05/18 00:19:13;;;;;;;11.85;1.63;;;;;;;16.92;36.94;102444.38;5012898;28;20027;-76
2023/05/18 00:21:42;;;;;;;7.65;1.65;;;;;;;16.81;36.76;102437.16;4979964;28;20446;-76
2023/05/18 00:24:09;;;;;;;7.30;1.77;;;;;;;16.84;37.66;102455.84;4995633;28;20046;-76
2023/05/18 00:26:36;;;;;;;5.70;1.42;;;;;;;16.82;36.35;102455.13;4979514;28;20035;-76
2023/05/18 00:29:02;;;;;;;9.38;1.77;;;;;;;16.80;37.22;102462.53;4996086;28;20113;-76
2023/05/18 00:31:27;;;;;;;13.43;1.63;;;;;;;16.75;37.48;102453.09;4979405;28;20109;-77
2023/05/18 00:33:54;;;;;;;11.38;2.30;;;;;;;16.73;37.00;102457.75;4995952;28;20026;-76
2023/05/18 00:36:19;;;;;;;4.85;1.83;;;;;;;16.65;36.91;102450.28;4995244;28;20030;-76
2023/05/18 00:38:45;;;;;;;8.23;1.50;;;;;;;16.67;38.00;102461.84;4995323;28;20037;-76
2023/05/18 00:41:10;;;;;;;5.55;1.75;;;;;;;16.63;37.83;102460.38;4995160;28;20034;-76
2023/05/18 00:43:39;;;;;;;8.75;2.00;;;;;;;16.57;37.37;102455.47;4979045;28;20373;-76
2023/05/18 00:46:05;;;;;;;12.95;1.90;;;;;;;16.56;37.65;102455.59;4996022;28;20431;-76
2023/05/18 00:48:30;;;;;;;6.97;1.60;;;;;;;16.41;38.30;102433.38;5011525;28;20038;-76
2023/05/18 00:50:55;;;;;;;5.30;1.63;;;;;;;16.52;37.57;102460.38;4996444;28;20085;-76
2023/05/18 00:53:21;;;;;;;4.20;1.38;;;;;;;16.41;37.60;102444.19;4994946;28;20038;-76
2023/05/18 00:55:46;;;;;;;11.55;1.88;;;;;;;16.38;37.24;102449.84;4995292;28;20366;-76
2023/05/18 00:58:13;;;;;;;8.52;1.83;;;;;;;16.37;37.34;102447.25;5011842;28;20116;-76
2023/05/18 01:00:39;;;;;;;6.18;1.83;;;;;;;16.28;36.88;102438.94;4995888;28;20026;-75
2023/05/18 01:03:05;;;;;;;7.05;1.50;;;;;;;16.32;37.75;102453.06;4997458;28;20488;-75
2023/05/18 01:05:30;;;;;;;6.60;1.40;;;;;;;16.27;38.25;102447.19;4997147;28;20081;-75
2023/05/18 01:07:56;;;;;;;3.78;1.67;;;;;;;16.22;37.71;102452.94;4997331;28;20380;-75
2023/05/18 01:10:22;;;;;;;6.53;1.38;;;;;;;16.26;38.16;102467.09;4997468;28;20030;-74
2023/05/18 01:13:01;;;;;;;6.90;2.00;;;;;;;16.19;37.06;102460.47;4996993;28;20094;-74
2023/05/18 01:15:36;;;;;;;4.82;1.38;;;;;;;16.19;38.75;102465.88;5013242;28;20100;-74
2023/05/18 01:18:05;;;;;;;6.03;1.98;;;;;;;16.16;38.57;102460.72;5012880;28;20062;-75
2023/05/18 01:20:44;;;;;;;5.53;1.58;;;;;;;16.11;38.99;102471.88;4996439;28;20045;-75
2023/05/18 01:23:40;;;;;;;7.15;1.60;;;;;;;15.99;38.37;102456.69;4996691;28;20050;-75
2023/05/18 01:26:23;;;;;;;10.70;2.28;;;;;;;16.03;37.84;102465.38;4997776;28;20077;-75
2023/05/18 01:28:49;;;;;;;5.15;1.98;;;;;;;15.97;38.34;102461.34;5012206;28;20031;-75
2023/05/18 01:31:15;;;;;;;2.60;1.63;;;;;;;15.92;37.27;102457.28;4997256;28;20061;-75
2023/05/18 01:33:41;;;;;;;4.43;1.58;;;;;;;15.85;38.26;102462.34;4996656;28;20051;-75
2023/05/18 01:36:06;;;;;;;5.30;2.15;;;;;;;15.83;37.65;102461.59;4996576;28;20037;-75
2023/05/18 01:38:32;;;;;;;6.72;1.80;;;;;;;15.78;38.15;102455.69;4996596;28;20042;-75
2023/05/18 01:40:59;;;;;;;10.68;2.33;;;;;;;15.80;38.24;102464.53;4996846;28;20029;-75
2023/05/18 01:43:31;;;;;;;9.43;1.60;;;;;;;15.70;38.20;102456.31;4996886;28;20032;-74
2023/05/18 01:46:02;;;;;;;4.30;1.77;;;;;;;15.63;38.24;102446.97;4996559;28;20046;-75
2023/05/18 01:48:28;;;;;;;4.88;1.92;;;;;;;15.67;38.20;102453.00;4995900;28;20407;-74
2023/05/18 01:50:55;;;;;;;7.03;2.45;;;;;;;15.66;38.77;102454.81;4995814;28;20038;-74
2023/05/18 01:53:40;;;;;;;6.90;1.85;;;;;;;15.59;38.89;102450.91;4976154;28;20146;-75
2023/05/18 01:56:07;;;;;;;8.38;2.05;;;;;;;15.64;39.39;102469.44;4998554;28;20031;-75
2023/05/18 01:58:34;;;;;;;6.28;1.90;;;;;;;15.55;38.00;102460.22;4995595;28;20030;-75
2023/05/18 02:00:59;;;;;;;4.22;1.40;;;;;;;15.59;38.38;102467.13;4996389;28;20019;-76
2023/05/18 02:03:25;;;;;;;4.97;1.48;;;;;;;15.55;39.23;102459.38;5012396;28;20167;-74
2023/05/18 02:05:50;;;;;;;3.60;1.48;;;;;;;15.44;39.26;102456.59;4996617;28;20377;-74
2023/05/18 02:08:16;;;;;;;3.08;1.67;;;;;;;15.43;39.06;102461.19;4995600;28;20050;-75
2023/05/18 02:10:41;;;;;;;4.63;1.60;;;;;;;15.44;38.97;102462.00;4979423;28;20034;-74
2023/05/18 02:13:07;;;;;;;6.63;1.85;;;;;;;15.35;37.85;102458.22;4996428;28;20412;-75
2023/05/18 02:15:32;;;;;;;6.35;1.27;;;;;;;15.37;38.45;102464.34;4996003;28;20088;-75
2023/05/18 02:17:58;;;;;;;12.10;1.60;;;;;;;15.22;38.51;102438.53;4995599;28;20454;-74
2023/05/18 02:20:23;;;;;;;7.55;2.60;;;;;;;15.34;38.99;102461.03;4995511;28;20084;-74
2023/05/18 02:22:48;;;;;;;4.75;1.73;;;;;;;15.33;38.28;102465.56;4995288;28;20046;-74
2023/05/18 02:25:14;;;;;;;7.65;2.03;;;;;;;15.28;38.67;102467.75;5011499;28;20125;-74
2023/05/18 02:27:39;;;;;;;6.57;1.85;;;;;;;15.30;38.90;102476.59;4979224;28;20522;-74
2023/05/18 02:30:07;;;;;;;4.50;2.05;;;;;;;15.25;38.57;102473.41;4994754;28;20448;-75
2023/05/18 02:32:37;;;;;;;10.43;2.53;;;;;;;15.22;38.70;102473.63;4995220;28;20081;-74
2023/05/18 02:35:07;;;;;;;5.78;1.80;;;;;;;15.14;39.14;102471.53;4994977;28;20038;-74
2023/05/18 02:37:41;;;;;;;4.25;1.73;;;;;;;15.14;38.76;102476.94;4994923;28;20065;-75
2023/05/18 02:40:09;;;;;;;3.08;2.13;;;;;;;15.08;39.70;102476.53;4996745;28;20031;-74
2023/05/18 02:42:35;;;;;;;6.70;1.80;;;;;;;15.06;39.76;102479.38;5011194;28;20034;-75
2023/05/18 02:45:01;;;;;;;3.97;2.22;;;;;;;14.98;39.11;102470.13;4996773;28;20031;-75
2023/05/18 02:47:26;;;;;;;7.05;1.80;;;;;;;14.96;40.13;102466.72;4995526;28;20385;-74
2023/05/18 02:49:52;;;;;;;2.92;1.75;;;;;;;14.96;39.05;102472.09;4995439;28;20089;-74
2023/05/18 02:52:17;;;;;;;13.73;2.72;;;;;;;14.86;38.79;102465.66;4995352;28;20034;-75
2023/05/18 02:54:43;;;;;;;4.22;1.88;;;;;;;14.87;39.62;102478.19;4994647;28;20085;-75
2023/05/18 02:57:10;;;;;;;7.20;1.88;;;;;;;14.82;39.13;102473.16;4994638;28;20495;-74
2023/05/18 02:59:36;;;;;;;5.55;1.75;;;;;;;14.73;38.91;102464.88;4985442;28;20042;-74
2023/05/18 03:02:02;;;;;;;3.47;1.60;;;;;;;14.67;39.96;102459.94;4975348;28;20041;-74
2023/05/18 03:04:27;;;;;;;4.95;1.60;;;;;;;14.70;38.79;102473.19;4959217;28;20096;-75
2023/05/18 03:06:52;;;;;;;4.65;1.48;;;;;;;14.63;39.61;102469.25;5011278;28;20026;-75
2023/05/18 03:09:18;;;;;;;6.75;2.10;;;;;;;14.60;40.07;102464.09;4978524;28;20030;-74
2023/05/18 03:11:44;;;;;;;3.28;1.40;;;;;;;14.55;40.08;102457.19;4995374;28;20084;-75
2023/05/18 03:14:10;;;;;;;4.72;1.40;;;;;;;14.56;39.47;102464.31;4994139;28;20035;-74
2023/05/18 03:16:37;;;;;;;3.55;1.42;;;;;;;14.36;40.06;102437.97;4994474;28;20384;-75
2023/05/18 03:19:03;;;;;;;7.38;1.58;;;;;;;14.41;39.81;102459.19;4997974;28;20030;-75
2023/05/18 03:21:32;;;;;;;6.03;2.08;;;;;;;14.34;40.13;102450.72;4998101;28;20061;-74
2023/05/18 03:23:58;;;;;;;3.72;1.40;;;;;;;14.36;39.61;102459.53;4998738;28;20396;-75
2023/05/18 03:26:24;;;;;;;6.95;1.88;;;;;;;14.30;39.69;102451.88;4998197;28;20452;-75
2023/05/18 03:28:50;;;;;;;5.53;1.48;;;;;;;14.35;40.24;102463.19;4982134;28;20111;-74
2023/05/18 03:31:16;;;;;;;2.33;1.42;;;;;;;14.35;39.10;102460.50;4998392;28;20032;-74
2023/05/18 03:33:41;;;;;;;4.40;1.60;;;;;;;14.33;40.49;102457.06;4997711;28;20047;-75
2023/05/18 03:36:07;;;;;;;5.38;1.75;;;;;;;14.36;39.77;102470.31;4998137;28;20488;-75
2023/05/18 03:38:32;;;;;;;5.90;2.88;;;;;;;14.35;40.55;102476.69;4998827;28;20045;-75
2023/05/18 03:40:58;;;;;;;6.38;1.60;;;;;;;14.31;40.24;102467.09;4997596;28;20041;-74
2023/05/18 03:43:28;;;;;;;4.80;1.90;;;;;;;14.31;40.39;102466.22;4981653;28;20412;-75
2023/05/18 03:45:53;;;;;;;4.43;1.52;;;;;;;14.29;40.56;102460.09;4998356;28;20069;-75
2023/05/18 03:48:19;;;;;;;7.38;2.15;;;;;;;14.27;40.42;102465.56;4998158;28;20038;-75
2023/05/18 03:50:45;;;;;;;3.30;1.80;;;;;;;14.28;39.65;102475.41;4981705;28;20033;-75
2023/05/18 03:53:11;;;;;;;5.68;1.90;;;;;;;14.21;39.79;102468.72;4997295;28;20056;-75
2023/05/18 03:55:37;;;;;;;6.03;1.80;;;;;;;14.18;40.27;102462.72;4997620;28;20096;-75
2023/05/18 03:58:02;;;;;;;2.58;1.70;;;;;;;14.17;40.62;102459.16;5014259;28;20030;-75
2023/05/18 04:00:27;;;;;;;10.88;2.60;;;;;;;14.19;40.28;102465.28;5013986;28;20499;-75
2023/05/18 04:02:53;;;;;;;6.38;2.28;;;;;;;14.23;40.24;102476.72;4997452;28;20073;-74
2023/05/18 04:05:18;;;;;;;4.68;1.88;;;;;;;14.20;41.16;102467.00;4981131;28;20421;-74
2023/05/18 04:07:45;;;;;;;10.20;2.65;;;;;;;14.23;40.19;102464.09;4997348;28;20018;-75
2023/05/18 04:10:11;;;;;;;7.20;2.22;;;;;;;14.20;40.37;102467.00;4997691;28;20027;-74
2023/05/18 04:12:37;;;;;;;5.88;1.90;;;;;;;14.25;40.63;102470.22;4997449;28;20035;-75
2023/05/18 04:15:03;;;;;;;9.52;2.28;;;;;;;14.29;39.96;102470.88;4997089;28;20038;-75
2023/05/18 04:17:28;;;;;;;9.82;2.17;;;;;;;14.29;41.04;102477.09;4997036;28;20441;-75
2023/05/18 04:19:54;;;;;;;8.43;2.03;;;;;;;14.29;40.33;102477.09;4997358;28;20038;-75
2023/05/18 04:22:20;;;;;;;2.97;1.85;;;;;;;14.26;40.96;102476.47;4997341;28;20033;-75
2023/05/18 04:24:46;;;;;;;10.55;2.05;;;;;;;14.33;41.05;102481.34;4997021;28;20038;-74
2023/05/18 04:27:12;;;;;;;8.13;2.30;;;;;;;14.39;40.06;102486.28;4996805;28;20502;-74
2023/05/18 04:29:39;;;;;;;6.35;2.10;;;;;;;14.44;40.05;102494.03;4998185;28;20038;-75
2023/05/18 04:32:09;;;;;;;8.60;1.95;;;;;;;14.46;40.82;102490.22;4980808;28;20030;-75
2023/05/18 04:34:36;;;;;;;11.23;2.65;;;;;;;14.49;40.06;102494.53;4996899;28;20563;-74
2023/05/18 04:37:04;;;;;;;8.20;2.38;;;;;;;14.51;40.50;102501.56;4997289;28;20384;-75
2023/05/18 04:39:31;;;;;;;12.35;2.42;;;;;;;14.52;41.37;102500.56;4997105;28;20026;-74
2023/05/18 04:41:57;;;;;;;13.60;2.17;;;;;;;14.57;40.27;102501.09;4980571;28;20045;-74
2023/05/18 04:44:30;;;;;;;5.78;2.90;;;;;;;14.64;40.89;102503.31;5013039;28;20034;-75
2023/05/18 04:46:55;;;;;;;;;;;;;;;14.70;41.17;102502.88;4996959;28;20030;-74
2023/05/18 04:49:21;;;;;;;8.50;2.30;;;;;;;14.66;40.45;102501.38;4997172;28;20291;-75
2023/05/18 04:51:56;;;;;;;10.32;2.20;;;;;;;14.67;41.27;102500.41;4998104;28;20058;-75
2023/05/18 04:54:27;;;;;;;5.40;2.40;;;;;;;14.80;40.48;102506.59;4996596;28;20082;-75
2023/05/18 04:56:52;;;;;;;3.80;2.00;;;;;;;14.83;40.14;102509.06;4996517;28;20030;-74
2023/05/18 04:59:18;;;;;;;3.35;2.13;;;;;;;14.86;40.71;102503.44;4996718;28;20027;-75
2023/05/18 05:01:45;;;;;;;5.65;2.40;;;;;;;14.83;40.59;102487.47;4996181;28;20026;-74
2023/05/18 05:04:11;;;;;;;4.55;2.00;;;;;;;15.06;41.08;102514.44;4996674;28;20093;-75
2023/05/18 05:06:36;;;;;;;5.30;2.10;;;;;;;15.10;40.03;102501.59;4996006;28;20038;-75
2023/05/18 05:09:02;;;;;;;6.43;2.40;;;;;;;15.16;40.10;102501.97;4996416;28;20066;-75
2023/05/18 05:11:28;;;;;;;7.55;2.65;;;;;;;15.33;40.84;102503.38;5012572;28;20034;-74
2023/05/18 05:13:53;;;;;;;6.25;2.05;;;;;;;15.29;40.36;102491.09;4996413;28;20460;-75
2023/05/18 05:16:18;;;;;;;10.45;2.50;;;;;;;15.45;41.38;102502.41;5013098;28;20030;-75
2023/05/18 05:18:44;;;;;;;5.85;2.20;;;;;;;15.55;39.95;102514.25;4980482;28;20031;-75
2023/05/18 05:21:09;;;;;;;8.68;2.38;;;;;;;15.57;40.14;102501.50;4996416;28;20038;-75
2023/05/18 05:23:34;;;;;;;4.22;1.92;;;;;;;15.66;40.51;102511.56;4996473;28;20050;-75
2023/05/18 05:26:00;;;;;;;7.07;2.28;;;;;;;15.76;40.74;102508.13;4997414;28;20107;-75
2023/05/18 05:28:25;;;;;;;4.68;2.28;;;;;;;15.86;41.03;102509.13;4996497;28;20037;-75
2023/05/18 05:30:51;;;;;;;5.03;2.30;;;;;;;15.90;39.87;102510.59;4977435;28;20130;-74
2023/05/18 05:33:17;;;;;;;4.97;2.20;;;;;;;16.03;40.69;102516.75;4996127;28;20378;-74
2023/05/18 05:35:45;;;;;;;8.18;2.75;;;;;;;16.07;40.47;102511.00;4977876;28;20061;-74
2023/05/18 05:38:12;;;;;;;5.43;2.30;;;;;;;16.11;40.85;102508.88;4977972;28;20117;-75
2023/05/18 05:40:37;;;;;;;10.15;2.30;;;;;;;16.23;40.17;102502.47;4979092;28;20031;-75
2023/05/18 05:43:06;;;;;;;8.85;2.67;;;;;;;16.35;40.45;102515.00;4998516;28;20034;-75
2023/05/18 05:45:33;;;;;;;10.13;2.60;;;;;;;16.45;39.91;102510.56;4997994;28;20046;-75
2023/05/18 05:47:59;;;;;;;14.90;2.90;;;;;;;16.56;40.63;102513.28;4998176;28;20406;-75
2023/05/18 05:50:26;;;;;;;4.43;2.53;;;;;;;16.66;39.85;102511.53;4997838;28;20125;-75
2023/05/18 05:52:51;;;;;;;3.60;2.47;;;;;;;16.74;39.29;102510.91;5015424;28;20107;-74
2023/05/18 05:55:17;;;;;;;8.43;2.10;;;;;;;16.71;39.41;102490.38;4998544;28;20515;-75
2023/05/18 05:57:42;;;;;;;11.32;2.65;;;;;;;16.89;39.26;102502.34;4998226;28;20092;-75
2023/05/18 06:00:12;;;;;;;9.02;3.47;;;;;;;16.94;40.01;102506.53;4998536;28;20077;-75
2023/05/18 06:02:38;;;;;;;9.25;2.30;;;;;;;16.92;40.22;102503.94;4997727;28;20089;-75
2023/05/18 06:05:07;;;;;;;8.23;2.88;;;;;;;16.92;40.12;102489.56;4997681;28;20026;-75
2023/05/18 06:07:33;;;;;;;5.20;3.10;;;;;;;17.03;39.44;102493.03;4997653;28;20040;-75
2023/05/18 06:09:59;;;;;;;10.85;2.83;;;;;;;17.25;40.01;102505.63;4999549;28;20026;-75
2023/05/18 06:12:25;;;;;;;11.60;2.72;;;;;;;17.43;40.07;102512.16;4996649;28;20438;-75
2023/05/18 06:14:53;;;;;;;7.25;2.92;;;;;;;17.57;39.30;102517.28;5001995;28;20033;-75
2023/05/18 06:17:19;;;;;;;8.13;3.58;;;;;;;17.61;39.49;102507.91;5011548;28;20126;-75
2023/05/18 06:19:44;;;;;;;7.35;2.47;;;;;;;17.66;39.78;102502.94;4994040;28;20054;-75
2023/05/18 06:22:09;;;;;;;5.40;2.97;;;;;;;17.77;39.44;102515.56;4994455;28;20113;-75
2023/05/18 06:24:35;;;;;;;9.25;2.95;;;;;;;17.79;39.45;102517.13;4994221;28;20118;-75
2023/05/18 06:27:00;;;;;;;8.27;2.78;;;;;;;17.79;39.28;102510.84;4994147;28;20038;-75
2023/05/18 06:29:26;;;;;;;9.73;3.20;;;;;;;17.95;39.90;102524.78;4995533;28;20041;-75
2023/05/18 06:31:51;;;;;;;5.18;2.38;;;;;;;17.91;39.26;102505.22;4996904;28;20027;-75
2023/05/18 06:34:16;;;;;;;5.07;2.35;;;;;;;17.98;39.32;102519.94;4994005;28;20110;-76
2023/05/18 06:36:43;;;;;;;6.65;3.00;;;;;;;17.93;39.55;102507.78;5012637;28;20042;-78
2023/05/18 06:39:08;;;;;;;3.90;2.50;;;;;;;18.01;39.55;102522.38;5012917;28;20053;-78
2023/05/18 06:41:34;;;;;;;6.35;2.85;;;;;;;18.01;39.64;102521.50;5028788;28;20038;-80
2023/05/18 06:44:00;;;;;;;6.50;2.97;;;;;;;17.94;40.04;102504.94;5012624;28;20026;-78
2023/05/18 06:46:25;;;;;;;9.88;3.20;;;;;;;18.03;39.11;102503.28;4996811;28;20030;-78
2023/05/18 06:48:51;;;;;;;8.98;2.80;;;;;;;18.28;38.57;102512.78;5013179;28;20125;-76
2023/05/18 06:51:17;;;;;;;6.13;3.22;;;;;;;18.48;39.05;102514.59;5012618;28;20034;-78
2023/05/18 06:53:42;;;;;;;5.53;3.10;;;;;;;18.60;38.45;102497.16;5016404;28;20121;-77
2023/05/18 06:56:10;;;;;;;14.75;3.97;;;;;;;18.80;39.08;102526.06;5000968;28;20152;-77
2023/05/18 06:58:36;;;;;;;6.40;3.38;;;;;;;18.87;38.79;102521.78;5017822;28;20030;-76
2023/05/18 07:01:01;;;;;;;10.55;2.80;;;;;;;18.80;38.49;102520.63;5018443;28;20491;-77
2023/05/18 07:03:27;;;;;;;5.07;3.05;;;;;;;18.85;38.43;102521.06;5017433;28;20468;-77
2023/05/18 07:05:52;;;;;;;6.10;2.85;;;;;;;19.02;39.38;102524.94;5001372;28;20125;-77
2023/05/18 07:08:18;;;;;;;5.03;2.65;;;;;;;19.02;39.03;102505.91;5017335;28;20033;-81
2023/05/18 07:10:43;;;;;;;7.70;3.00;;;;;;;19.25;38.63;102522.78;5016861;28;20083;-78
2023/05/18 07:13:09;;;;;;;11.75;3.38;;;;;;;19.29;38.89;102511.47;5017155;28;20033;-78
2023/05/18 07:15:34;;;;;;;19.65;3.50;;;;;;;19.50;38.70;102533.97;4999830;28;20037;-78
2023/05/18 07:18:00;;;;;;;10.73;3.38;;;;;;;19.55;38.35;102517.19;4999570;28;20380;-79
2023/05/18 07:20:25;;;;;;;9.10;2.97;;;;;;;19.79;37.69;102531.19;4983379;28;20091;-78
2023/05/18 07:22:51;;;;;;;7.47;2.90;;;;;;;19.89;37.24;102521.13;4999509;28;20387;-76
2023/05/18 07:25:16;;;;;;;6.55;3.63;;;;;;;20.08;37.10;102521.06;5016755;28;20075;-76
2023/05/18 07:27:41;;;;;;;6.40;2.80;;;;;;;20.21;38.01;102537.88;5033205;28;20045;-76
2023/05/18 07:30:08;;;;;;;8.85;2.85;;;;;;;20.28;37.49;102544.50;5000166;28;20109;-79
2023/05/18 07:32:33;;;;;;;4.40;2.55;;;;;;;20.47;37.38;102546.25;5016733;28;20038;-77
2023/05/18 07:34:59;;;;;;;8.02;2.83;;;;;;;20.69;37.06;102542.25;4999671;28;20085;-76
2023/05/18 07:37:24;;;;;;;8.05;3.25;;;;;;;20.87;36.66;102526.78;5016543;28;20069;-76
2023/05/18 07:39:51;;;;;;;6.50;2.78;;;;;;;21.20;37.09;102526.13;4999292;28;20105;-76
2023/05/18 07:42:16;;;;;;;6.68;2.60;;;;;;;21.50;36.78;102522.09;5017214;28;20065;-77
2023/05/18 07:44:42;;;;;;;7.18;2.85;;;;;;;21.78;36.21;102522.81;5016771;28;20046;-77
2023/05/18 07:47:07;;;;;;;5.10;2.38;;;;;;;22.03;35.97;102525.56;5017580;28;20030;-75
2023/05/18 07:49:32;;;;;;;8.98;3.15;;;;;;;22.19;36.00;102511.16;5016119;28;20407;-77
2023/05/18 07:52:01;;;;;;;5.85;2.72;;;;;;;22.44;35.50;102507.50;5017310;28;20049;-76
2023/05/18 07:54:26;;;;;;;7.40;2.42;;;;;;;22.76;35.53;102514.06;5000268;28;20080;-76
2023/05/18 07:56:52;;;;;;;4.30;2.90;;;;;;;22.93;35.37;102508.47;5032989;28;20507;-78
2023/05/18 07:59:17;;;;;;;9.98;3.25;;;;;;;23.06;34.46;102489.69;4982716;28;20026;-78
2023/05/18 08:01:44;;;;;;;4.90;2.35;;;;;;;23.28;34.40;102512.78;5015807;28;20022;-78
2023/05/18 08:04:09;;;;;;;6.15;3.30;;;;;;;23.32;34.61;102503.19;5015228;28;20053;-76
2023/05/18 08:06:35;;;;;;;4.13;2.38;;;;;;;23.45;34.51;102505.47;5015749;28;20495;-76
2023/05/18 08:09:00;;;;;;;9.55;2.55;;;;;;;23.54;34.42;102515.34;4999195;28;20044;-76
2023/05/18 08:11:26;;;;;;;6.10;2.20;;;;;;;23.73;34.76;102513.09;5015593;28;20494;-77
2023/05/18 08:13:51;;;;;;;5.78;3.78;;;;;;;23.82;34.46;102500.25;5015135;28;20048;-76
2023/05/18 08:16:17;;;;;;;6.93;2.35;;;;;;;23.99;33.77;102503.78;5017340;28;20387;-77
2023/05/18 08:18:42;;;;;;;7.32;2.70;;;;;;;24.15;33.30;102501.00;4999795;28;20061;-79
2023/05/18 08:21:08;;;;;;;7.97;2.03;;;;;;;24.27;33.19;102483.19;5016160;28;20057;-77
2023/05/18 08:23:34;;;;;;;10.43;2.33;;;;;;;24.45;33.34;102485.66;5000252;28;20077;-79
2023/05/18 08:26:02;;;;;;;6.13;3.17;;;;;;;24.49;32.86;102487.84;5015600;28;20569;-76
2023/05/18 08:28:28;;;;;;;4.53;1.80;;;;;;;24.66;33.40;102499.56;5015037;28;20455;-77
2023/05/18 08:30:53;;;;;;;5.55;2.10;;;;;;;24.63;32.98;102467.91;5015444;28;20030;-78
2023/05/18 08:33:18;;;;;;;8.02;2.20;;;;;;;24.75;33.12;102488.38;5014853;28;20027;-78
2023/05/18 08:35:44;;;;;;;6.75;2.35;;;;;;;24.48;32.62;102486.16;4998264;28;20057;-82
2023/05/18 08:38:09;;;;;;;7.93;2.50;;;;;;;24.75;32.16;102488.38;4998816;28;20101;-78
2023/05/18 08:40:43;;;;;;;6.65;1.83;;;;;;;24.18;33.28;102492.44;4999139;28;20442;-80
2023/05/18 08:43:17;;;;;;;4.80;1.90;;;;;;;24.47;32.12;102478.09;5015645;28;20021;-79
2023/05/18 08:45:58;;;;;;;8.10;1.55;;;;;;;24.70;32.00;102477.13;5015423;28;20448;-80
2023/05/18 08:48:23;;;;;;;7.97;2.63;;;;;;;25.00;31.38;102472.63;5016163;28;20037;-77
2023/05/18 08:50:51;;;;;;;6.28;1.80;;;;;;;25.29;31.04;102483.69;5000109;28;20037;-78
2023/05/18 08:55:49;;;;;;;5.10;2.03;;;;;;;25.52;30.26;102486.41;4957637;28;20499;-62
2023/05/18 08:58:16;;;;;;;4.38;2.13;;;;;;;25.55;30.50;102483.31;4976215;28;20030;-63
2023/05/18 09:00:42;;;;;;;5.72;1.98;;;;;;;25.67;29.85;102490.06;4974461;28;20161;-62
2023/05/18 09:03:07;;;;;;;7.90;2.38;;;;;;;25.79;30.09;102484.97;4975582;28;20031;-63
2023/05/18 09:05:33;;;;;;;5.57;1.85;;;;;;;25.94;30.06;102492.16;4974584;28;20031;-63
2023/05/18 09:07:59;;;;;;;9.27;2.30;;;;;;;26.07;29.92;102485.13;4958235;28;20399;-63
2023/05/18 09:10:24;;;;;;;5.07;2.35;;;;;;;26.19;29.58;102489.13;4958576;28;20061;-62
2023/05/18 09:12:51;;;;;;;4.35;1.83;;;;;;;26.27;29.28;102486.28;4974391;28;20062;-63
2023/05/18 09:15:17;;;;;;;8.27;2.08;;;;;;;26.18;29.73;102480.06;4974061;28;20050;-64
2023/05/18 09:17:42;;;;;;;8.98;2.45;;;;;;;25.82;30.13;102482.69;4974031;28;20038;-63
2023/05/18 09:20:09;;;;;;;7.38;2.63;;;;;;;25.57;30.14;102484.00;4973782;28;20407;-63
2023/05/18 09:22:35;;;;;;;4.75;2.50;;;;;;;25.87;29.75;102482.97;4975484;28;20022;-63
2023/05/18 09:25:02;;;;;;;7.25;2.90;;;;;;;26.00;29.80;102477.66;4974303;28;20438;-63
2023/05/18 09:27:27;;;;;;;5.25;1.90;;;;;;;25.68;30.03;102480.78;4974019;28;20062;-63
2023/05/18 09:29:55;;;;;;;7.22;2.33;;;;;;;25.38;29.88;102485.31;4957590;28;20066;-63
2023/05/18 09:32:22;;;;;;;6.32;2.17;;;;;;;25.38;29.85;102485.31;4974031;28;20031;-63
2023/05/18 09:34:48;;;;;;;6.18;1.88;;;;;;;25.66;29.71;102480.09;4974777;28;20384;-63
2023/05/18 09:37:17;;;;;;;9.05;2.58;;;;;;;25.87;29.18;102466.50;4974330;28;20034;-66
2023/05/18 09:39:43;;;;;;;4.47;2.10;;;;;;;26.09;28.93;102461.06;4957783;28;20031;-63
2023/05/18 09:42:09;;;;;;;6.68;2.50;;;;;;;26.25;28.86;102467.25;4973506;28;20027;-63
2023/05/18 09:44:34;;;;;;;9.32;2.42;;;;;;;26.42;29.02;102467.88;4975104;28;20031;-63
2023/05/18 09:47:00;;;;;;;10.73;2.47;;;;;;;26.66;28.65;102467.53;4973985;28;20033;-63
2023/05/18 09:49:29;;;;;;;6.78;2.00;;;;;;;26.90;28.29;102469.94;4975232;28;20027;-67
2023/05/18 09:51:55;;;;;;;6.68;2.22;;;;;;;27.07;27.97;102463.09;4974308;28;20015;-63
2023/05/18 09:54:21;;;;;;;9.88;3.00;;;;;;;27.27;27.98;102467.94;4974848;28;20062;-63
2023/05/18 09:56:48;;;;;;;10.82;2.45;;;;;;;27.44;27.56;102463.88;4973521;28;20065;-64
2023/05/18 09:59:14;;;;;;;5.75;2.22;;;;;;;27.57;27.59;102466.72;4957741;28;20029;-64
2023/05/18 10:01:54;;;;;;;7.57;2.80;;;;;;;27.72;27.79;102461.97;4973725;28;20471;-64
2023/05/18 10:04:20;;;;;;;8.80;2.50;;;;;;;27.75;27.31;102456.00;4975227;28;20022;-63
2023/05/18 10:06:49;;;;;;;6.95;1.80;;;;;;;27.70;27.29;102466.78;4974821;28;20027;-63
2023/05/18 10:09:15;;;;;;;5.95;2.33;;;;;;;27.79;28.00;102461.97;4974709;28;20034;-63
2023/05/18 10:11:40;;;;;;;9.00;2.50;;;;;;;27.86;27.68;102461.00;4973852;28;20114;-64
2023/05/18 10:14:06;;;;;;;6.95;2.17;;;;;;;27.98;27.19;102464.84;4973677;28;20121;-64
2023/05/18 10:16:31;;;;;;;5.80;3.05;;;;;;;28.21;26.66;102445.28;4973494;28;20438;-63
2023/05/18 10:18:58;;;;;;;6.63;2.38;;;;;;;28.13;26.82;102442.69;4975739;28;20018;-63
2023/05/18 10:21:27;;;;;;;6.35;2.10;;;;;;;27.87;27.61;102448.88;4973575;28;20030;-64
2023/05/18 10:23:52;;;;;;;6.85;2.97;;;;;;;27.86;27.05;102444.47;4973258;28;20034;-63
2023/05/18 10:26:22;;;;;;;8.00;2.60;;;;;;;28.18;26.60;102446.53;4973493;28;20480;-63
2023/05/18 10:28:49;;;;;;;8.07;2.72;;;;;;;28.37;26.49;102438.53;4975208;28;20427;-63
2023/05/18 10:31:15;;;;;;;5.65;2.38;;;;;;;28.52;25.84;102453.03;4957844;28;20022;-63
2023/05/18 10:33:41;;;;;;;8.07;2.33;;;;;;;28.66;25.80;102443.75;4972852;28;20078;-64
2023/05/18 10:36:08;;;;;;;8.38;2.58;;;;;;;28.79;26.10;102429.97;4974411;28;20434;-63
2023/05/18 10:38:38;;;;;;;5.40;2.22;;;;;;;28.94;26.71;102436.16;4974352;28;20046;-62
2023/05/18 10:41:04;;;;;;;6.00;2.63;;;;;;;29.09;26.82;102441.47;4973213;28;20023;-63
2023/05/18 10:43:32;;;;;;;4.97;2.28;;;;;;;29.01;26.63;102431.47;4972811;28;20027;-63
2023/05/18 10:45:59;;;;;;;8.20;2.75;;;;;;;29.29;26.05;102432.16;4957134;28;20048;-64
2023/05/18 10:48:26;;;;;;;7.47;2.78;;;;;;;28.97;26.08;102435.75;4972626;28;20130;-64
2023/05/18 10:50:53;;;;;;;5.13;2.85;;;;;;;29.22;25.62;102434.06;4972578;28;20030;-64
2023/05/18 10:53:23;;;;;;;7.38;3.10;;;;;;;29.47;25.95;102422.34;4956554;28;20170;-64
2023/05/18 10:55:52;;;;;;;4.57;2.20;;;;;;;29.71;26.09;102419.75;4972569;28;20510;-64
2023/05/18 10:58:19;;;;;;;13.48;3.45;;;;;;;29.95;25.02;102434.81;4956769;28;20513;-65
2023/05/18 11:00:56;;;;;;;8.90;3.00;;;;;;;30.08;25.12;102426.47;4955767;28;20038;-64
2023/05/18 11:03:22;;;;;;;5.40;2.65;;;;;;;30.22;25.25;102418.94;4988677;28;20039;-64
2023/05/18 11:05:49;;;;;;;7.95;2.50;;;;;;;30.30;25.19;102422.31;4988677;28;20123;-64
2023/05/18 11:08:25;;;;;;;10.10;2.92;;;;;;;30.48;25.10;102416.94;4973702;28;20030;-64
2023/05/18 11:10:59;;;;;;;7.60;3.13;;;;;;;30.70;24.89;102419.34;4972735;28;20030;-64
2023/05/18 11:13:30;;;;;;;5.60;2.63;;;;;;;30.93;24.46;102422.41;4972971;28;20031;-64
2023/05/18 11:15:57;;;;;;;6.45;2.42;;;;;;;31.07;24.40;102410.97;4956574;28;20046;-64
2023/05/18 11:18:35;;;;;;;7.60;3.50;;;;;;;31.13;24.35;102412.84;4973740;28;20039;-63
2023/05/18 11:21:01;;;;;;;7.57;2.63;;;;;;;31.21;23.86;102408.97;4972838;28;20035;-64
2023/05/18 11:23:31;;;;;;;6.15;2.00;;;;;;;31.32;23.97;102411.00;4972620;28;20038;-64
2023/05/18 11:26:06;;;;;;;12.60;3.60;;;;;;;31.46;23.41;102404.25;4972871;28;20033;-65